Time;durP1;ratioP1;P1;durP2;ratioP2;P2;SDS_P1;SDS_P2;PMS_P1;PMS_P2;Temp;Humidity;BMP_temperature;BMP_pressure;BME280_temperature;BME280_humidity;BME280_pressure;Samples;Min_cycle;Max_cycle;Signal;HPM_P1;HPM_P2
2024/03/02 00:00:36;;;;;;;1.38;0.98;;;21.10;67.70;;;;;;5000721;28;20455;-79
2024/03/02 00:03:03;;;;;;;1.20;0.90;;;21.10;67.60;;;;;;5005461;28;20656;-77
2024/03/02 00:05:30;;;;;;;1.60;0.90;;;21.10;67.70;;;;;;4994066;28;20475;-77
2024/03/02 00:07:59;;;;;;;1.27;1.17;;;21.10;67.70;;;;;;4992914;28;20199;-78
2024/03/02 00:10:29;;;;;;;1.00;0.80;;;21.20;67.90;;;;;;5003702;28;20669;-77
2024/03/02 00:12:56;;;;;;;1.85;0.95;;;21.10;67.80;;;;;;5002842;28;20211;-78
2024/03/02 00:15:43;;;;;;;1.10;0.80;;;21.00;67.60;;;;;;4997384;28;20211;-78
2024/03/02 00:18:13;;;;;;;1.77;0.85;;;21.00;67.60;;;;;;4999612;28;20221;-78
2024/03/02 00:20:41;;;;;;;1.30;0.85;;;21.00;67.60;;;;;;5001380;28;20200;-78
2024/03/02 00:23:10;;;;;;;1.10;0.80;;;20.90;67.80;;;;;;4995996;28;20202;-78
2024/03/02 00:25:40;;;;;;;2.03;1.23;;;21.10;67.80;;;;;;4989835;28;20304;-78
2024/03/02 00:28:11;;;;;;;1.50;0.95;;;21.40;68.10;;;;;;5004753;28;20287;-78
2024/03/02 00:30:58;;;;;;;1.25;0.90;;;21.00;67.70;;;;;;5002908;28;20196;-77
2024/03/02 00:33:29;;;;;;;1.10;0.85;;;21.00;67.60;;;;;;5003073;28;20207;-78
2024/03/02 00:35:55;;;;;;;1.20;0.98;;;21.50;68.30;;;;;;4996657;28;20211;-78
2024/03/02 00:38:23;;;;;;;1.40;0.90;;;20.90;68.50;;;;;;4996224;28;20677;-78
2024/03/02 00:40:50;;;;;;;1.48;1.10;;;20.80;67.60;;;;;;5002619;28;20458;-79
2024/03/02 00:43:45;;;;;;;1.65;1.02;;;20.90;67.70;;;;;;5001849;28;20292;-78
2024/03/02 00:46:17;;;;;;;2.08;1.10;;;21.00;67.70;;;;;;4992495;28;20631;-78
2024/03/02 00:48:51;;;;;;;1.63;0.82;;;21.00;67.80;;;;;;4999475;28;20200;-78
2024/03/02 00:51:18;;;;;;;2.00;0.90;;;20.90;67.80;;;;;;5004304;28;20191;-78
2024/03/02 00:53:46;;;;;;;1.70;1.13;;;20.90;67.70;;;;;;4995016;28;20215;-77
2024/03/02 00:56:13;;;;;;;1.50;1.10;;;20.80;67.80;;;;;;5004404;28;20200;-78
2024/03/02 00:58:41;;;;;;;0.98;0.70;;;20.80;67.70;;;;;;5003530;28;20231;-77
2024/03/02 01:01:08;;;;;;;1.10;0.90;;;20.90;67.90;;;;;;5006015;28;20199;-78
2024/03/02 01:03:35;;;;;;;2.35;0.85;;;21.00;67.90;;;;;;4996695;28;20294;-77
2024/03/02 01:06:02;;;;;;;1.42;0.88;;;21.00;68.10;;;;;;4996094;28;20220;-77
2024/03/02 01:08:29;;;;;;;1.55;1.10;;;20.70;67.60;;;;;;5003116;28;20574;-78
2024/03/02 01:10:57;;;;;;;1.30;1.00;;;20.90;68.70;;;;;;5002306;28;20870;-78
2024/03/02 01:13:24;;;;;;;2.03;1.15;;;20.90;68.00;;;;;;4997275;28;20478;-78
2024/03/02 01:15:50;;;;;;;1.88;1.00;;;20.90;67.90;;;;;;4999406;28;20337;-77
2024/03/02 01:18:17;;;;;;;1.55;0.82;;;20.90;67.90;;;;;;5001309;28;20207;-78
2024/03/02 01:20:44;;;;;;;1.10;0.93;;;20.80;67.90;;;;;;4998744;28;20207;-77
2024/03/02 01:23:10;;;;;;;1.73;0.90;;;20.80;67.80;;;;;;4999449;28;20191;-78
2024/03/02 01:25:38;;;;;;;2.50;1.20;;;20.90;67.90;;;;;;4996744;28;20220;-77
2024/03/02 01:28:06;;;;;;;2.28;1.05;;;20.90;67.90;;;;;;5001564;28;20199;-77
2024/03/02 01:30:33;;;;;;;1.20;1.00;;;20.90;67.90;;;;;;5000446;28;20576;-77
2024/03/02 01:33:00;;;;;;;1.10;0.80;;;20.90;68.80;;;;;;5005403;28;20203;-78
2024/03/02 01:35:27;;;;;;;1.50;1.10;;;20.90;67.90;;;;;;5001370;28;20216;-77
2024/03/02 01:37:54;;;;;;;1.30;0.90;;;21.10;68.20;;;;;;5003746;28;20814;-78
2024/03/02 01:40:21;;;;;;;1.17;0.82;;;20.80;67.90;;;;;;5005564;28;20771;-77
2024/03/02 01:42:47;;;;;;;1.38;0.80;;;20.80;67.90;;;;;;5001780;28;20656;-77
2024/03/02 01:45:16;;;;;;;1.58;1.08;;;20.80;68.00;;;;;;5000042;28;20224;-77
2024/03/02 01:47:42;;;;;;;1.85;1.08;;;21.00;68.20;;;;;;5005480;28;20211;-77
2024/03/02 01:50:11;;;;;;;1.15;0.80;;;20.80;68.00;;;;;;4993768;28;20406;-77
2024/03/02 01:52:38;;;;;;;1.20;0.82;;;20.80;67.90;;;;;;4999848;28;20207;-77
2024/03/02 01:55:06;;;;;;;1.65;1.00;;;20.60;67.80;;;;;;5000360;28;20208;-77
2024/03/02 01:57:32;;;;;;;1.05;0.90;;;20.80;67.90;;;;;;5001621;28;20196;-77
2024/03/02 01:59:59;;;;;;;1.38;0.90;;;20.80;68.10;;;;;;5005978;28;20206;-77
2024/03/02 02:02:27;;;;;;;1.50;0.90;;;20.80;68.10;;;;;;5007019;28;20199;-78
2024/03/02 02:04:54;;;;;;;1.85;0.82;;;20.90;68.10;;;;;;5005639;28;20196;-77
2024/03/02 02:07:21;;;;;;;1.65;1.25;;;20.80;68.10;;;;;;5003923;28;20228;-77
2024/03/02 02:09:47;;;;;;;1.10;0.90;;;20.70;67.90;;;;;;5005251;28;20203;-78
2024/03/02 02:12:15;;;;;;;1.65;1.00;;;20.70;67.90;;;;;;5004582;28;20196;-77
2024/03/02 02:14:48;;;;;;;1.52;0.70;;;20.80;68.10;;;;;;5006094;28;20669;-77
2024/03/02 02:17:15;;;;;;;1.30;0.90;;;20.60;67.90;;;;;;5003365;28;20196;-78
2024/03/02 02:19:43;;;;;;;1.52;1.05;;;21.00;68.30;;;;;;5002743;28;20203;-78
2024/03/02 02:22:11;;;;;;;0.90;0.70;;;20.70;68.00;;;;;;4997051;28;20203;-77
2024/03/02 02:24:41;;;;;;;1.00;0.75;;;21.00;68.30;;;;;;5005264;28;20204;-77
2024/03/02 02:27:07;;;;;;;1.77;1.00;;;20.70;68.20;;;;;;5000686;28;20382;-77
2024/03/02 02:29:34;;;;;;;2.10;1.00;;;20.70;68.00;;;;;;5003096;28;20202;-77
2024/03/02 02:32:01;;;;;;;1.10;0.80;;;20.70;68.00;;;;;;5002057;28;20203;-77
2024/03/02 02:34:28;;;;;;;1.08;0.70;;;20.70;68.00;;;;;;5003271;28;20243;-77
2024/03/02 02:36:55;;;;;;;2.17;1.00;;;20.70;68.10;;;;;;5003519;28;20688;-77
2024/03/02 02:39:23;;;;;;;1.10;0.80;;;20.70;68.10;;;;;;5000512;28;20211;-77
2024/03/02 02:41:50;;;;;;;1.40;1.10;;;20.70;68.10;;;;;;5007433;28;20200;-76
2024/03/02 02:44:17;;;;;;;1.20;0.80;;;20.70;68.20;;;;;;5006244;28;20204;-77
2024/03/02 02:46:44;;;;;;;1.10;0.77;;;20.50;67.90;;;;;;5006479;28;20219;-77
2024/03/02 02:49:10;;;;;;;1.10;0.70;;;20.70;68.10;;;;;;5004927;28;20211;-77
2024/03/02 02:51:37;;;;;;;1.05;0.80;;;20.70;68.10;;;;;;5005903;28;20208;-77
2024/03/02 02:54:04;;;;;;;1.05;0.70;;;20.80;68.30;;;;;;5004539;28;20199;-77
2024/03/02 02:56:32;;;;;;;1.30;0.80;;;20.70;68.10;;;;;;5006677;28;20202;-77
2024/03/02 02:58:58;;;;;;;1.00;0.70;;;20.70;68.10;;;;;;5001377;28;20203;-77
2024/03/02 03:01:25;;;;;;;1.20;0.80;;;20.60;68.10;;;;;;5000060;28;20668;-77
2024/03/02 03:03:52;;;;;;;2.13;0.70;;;20.60;68.00;;;;;;4996517;28;20751;-77
2024/03/02 03:06:18;;;;;;;1.52;0.90;;;20.70;68.20;;;;;;5001517;28;20609;-77
2024/03/02 03:08:45;;;;;;;1.20;0.90;;;20.80;68.30;;;;;;5004216;28;20212;-77
2024/03/02 03:11:12;;;;;;;1.58;0.90;;;21.10;68.60;;;;;;5005293;28;20196;-78
2024/03/02 03:13:40;;;;;;;1.45;0.80;;;20.40;67.90;;;;;;4998311;28;20410;-77
2024/03/02 03:16:07;;;;;;;1.42;0.90;;;21.10;68.90;;;;;;4993669;28;20208;-77
2024/03/02 03:18:34;;;;;;;1.17;0.95;;;20.70;68.20;;;;;;4999766;28;20238;-77
2024/03/02 03:21:00;;;;;;;1.40;0.93;;;20.60;68.20;;;;;;5003410;28;20203;-77
2024/03/02 03:23:27;;;;;;;1.40;0.80;;;20.60;68.40;;;;;;5003611;28;20767;-77
2024/03/02 03:25:54;;;;;;;1.60;1.00;;;20.40;68.00;;;;;;4999232;28;21461;-78
2024/03/02 03:28:20;;;;;;;1.10;0.88;;;21.10;68.70;;;;;;5006173;28;20227;-78
2024/03/02 03:30:48;;;;;;;1.20;0.80;;;20.60;68.20;;;;;;5003800;28;20199;-78
2024/03/02 03:33:15;;;;;;;1.35;0.90;;;20.60;68.20;;;;;;5004952;28;20224;-78
2024/03/02 03:35:42;;;;;;;1.23;0.80;;;20.60;68.30;;;;;;5004005;28;20192;-78
2024/03/02 03:38:08;;;;;;;1.00;0.80;;;20.60;68.20;;;;;;5002164;28;20196;-78
2024/03/02 03:40:35;;;;;;;1.10;0.90;;;20.40;67.90;;;;;;5001284;28;20212;-78
2024/03/02 03:43:02;;;;;;;1.20;0.75;;;20.60;68.20;;;;;;5002540;28;20781;-78
2024/03/02 03:45:30;;;;;;;2.00;0.93;;;20.60;68.20;;;;;;5003977;28;20575;-78
2024/03/02 03:47:58;;;;;;;1.00;0.80;;;20.60;68.20;;;;;;5003949;28;20676;-78
2024/03/02 03:50:25;;;;;;;1.02;0.70;;;20.70;69.20;;;;;;5005208;28;20858;-78
2024/03/02 03:52:52;;;;;;;1.95;0.80;;;20.50;68.10;;;;;;5004122;28;20199;-78
2024/03/02 03:55:19;;;;;;;1.20;0.82;;;20.60;68.40;;;;;;4999441;28;20580;-78
2024/03/02 03:57:45;;;;;;;1.70;0.85;;;20.30;67.90;;;;;;5007314;28;20203;-78
2024/03/02 04:00:13;;;;;;;1.75;0.70;;;20.60;68.20;;;;;;5003877;28;20230;-78
2024/03/02 04:02:39;;;;;;;2.05;0.90;;;20.60;68.30;;;;;;5005527;28;20196;-78
2024/03/02 04:05:10;;;;;;;1.17;0.80;;;20.60;68.40;;;;;;5002082;28;20192;-78
2024/03/02 04:07:40;;;;;;;1.10;0.80;;;20.50;68.10;;;;;;5005774;28;20695;-78
2024/03/02 04:10:09;;;;;;;1.60;1.15;;;20.40;68.00;;;;;;5003951;28;20204;-78
2024/03/02 04:12:37;;;;;;;0.90;0.70;;;20.60;68.40;;;;;;5004542;28;20226;-77
2024/03/02 04:15:06;;;;;;;2.05;1.10;;;20.50;68.10;;;;;;5003740;28;20290;-77
2024/03/02 04:17:33;;;;;;;1.30;0.80;;;20.60;68.20;;;;;;5004130;28;20200;-78
2024/03/02 04:20:00;;;;;;;1.35;0.90;;;21.10;68.90;;;;;;5001338;28;20197;-78
2024/03/02 04:22:28;;;;;;;1.25;0.80;;;20.60;68.50;;;;;;5001862;28;20231;-78
2024/03/02 04:24:55;;;;;;;1.65;0.95;;;20.50;68.10;;;;;;5003093;28;20538;-78
2024/03/02 04:27:22;;;;;;;1.08;0.70;;;20.60;68.30;;;;;;5001542;28;20220;-78
2024/03/02 04:29:49;;;;;;;1.55;0.70;;;20.70;68.50;;;;;;5002195;28;20463;-78
2024/03/02 04:32:15;;;;;;;1.33;0.88;;;20.50;68.20;;;;;;4999800;28;20645;-78
2024/03/02 04:34:42;;;;;;;1.02;0.73;;;20.60;68.40;;;;;;5001196;28;20203;-78
2024/03/02 04:37:09;;;;;;;2.50;0.80;;;21.00;68.90;;;;;;5002951;28;20208;-78
2024/03/02 04:39:36;;;;;;;1.15;0.88;;;20.50;68.40;;;;;;5001634;28;20254;-77
2024/03/02 04:42:03;;;;;;;1.00;0.70;;;20.50;68.40;;;;;;5001260;28;20196;-78
2024/03/02 04:44:30;;;;;;;1.88;0.70;;;20.50;68.30;;;;;;5001763;28;20272;-78
2024/03/02 04:46:57;;;;;;;1.20;0.90;;;20.50;68.40;;;;;;5001138;28;20216;-78
2024/03/02 04:49:24;;;;;;;1.15;0.98;;;20.50;68.30;;;;;;5001353;28;20203;-78
2024/03/02 04:51:51;;;;;;;1.13;0.73;;;20.50;68.30;;;;;;4999084;28;20698;-78
2024/03/02 04:54:18;;;;;;;1.42;0.88;;;20.30;68.10;;;;;;4997690;28;20272;-78
2024/03/02 04:56:49;;;;;;;0.90;0.70;;;20.50;68.20;;;;;;5002498;28;20211;-78
2024/03/02 04:59:15;;;;;;;1.42;0.82;;;20.50;68.20;;;;;;5001441;28;20196;-78
2024/03/02 05:01:42;;;;;;;1.27;0.90;;;20.50;68.40;;;;;;5002794;28;20207;-78
2024/03/02 05:04:11;;;;;;;1.65;1.15;;;21.00;68.90;;;;;;5000213;28;20211;-78
2024/03/02 05:06:38;;;;;;;1.20;0.93;;;20.50;69.00;;;;;;4998710;28;20593;-78
2024/03/02 05:09:05;;;;;;;1.27;0.82;;;20.40;68.10;;;;;;5002116;28;20211;-78
2024/03/02 05:12:02;;;;;;;1.33;0.93;;;20.30;68.10;;;;;;5002623;28;20207;-78
2024/03/02 05:14:30;;;;;;;1.20;0.90;;;21.00;68.80;;;;;;5001637;28;20211;-78
2024/03/02 05:16:57;;;;;;;1.42;0.80;;;20.20;68.10;;;;;;5005004;28;20206;-78
2024/03/02 05:19:25;;;;;;;0.90;0.80;;;20.50;68.30;;;;;;5001140;28;20683;-79
2024/03/02 05:21:51;;;;;;;0.93;0.70;;;20.50;68.40;;;;;;5004344;28;20207;-78
2024/03/02 05:24:18;;;;;;;1.40;0.80;;;20.50;68.40;;;;;;4997358;28;20208;-78
2024/03/02 05:26:45;;;;;;;1.00;0.70;;;20.60;68.50;;;;;;4997982;28;20226;-78
2024/03/02 05:29:12;;;;;;;2.47;1.15;;;20.80;68.70;;;;;;5000695;28;20204;-77
2024/03/02 05:31:40;;;;;;;1.05;0.80;;;20.50;68.40;;;;;;5005896;28;20195;-78
2024/03/02 05:34:07;;;;;;;1.10;0.80;;;20.70;68.70;;;;;;5003082;28;20668;-78
2024/03/02 05:36:33;;;;;;;1.00;0.82;;;20.40;68.30;;;;;;5005582;28;20200;-78
2024/03/02 05:39:00;;;;;;;1.05;0.85;;;20.40;68.20;;;;;;5001675;28;20195;-78
2024/03/02 05:41:27;;;;;;;1.30;0.90;;;20.40;68.20;;;;;;5001294;28;20204;-78
2024/03/02 05:43:53;;;;;;;1.50;0.90;;;20.80;68.80;;;;;;5004002;28;20627;-78
2024/03/02 05:46:20;;;;;;;1.33;0.93;;;20.40;68.30;;;;;;5002868;28;20419;-78
2024/03/02 05:48:48;;;;;;;1.05;0.80;;;20.80;68.80;;;;;;5007392;28;20660;-78
2024/03/02 05:51:15;;;;;;;2.10;1.08;;;20.40;68.30;;;;;;5005840;28;20199;-78
2024/03/02 05:53:42;;;;;;;1.35;0.98;;;20.40;68.40;;;;;;4999928;28;20640;-78
2024/03/02 05:56:09;;;;;;;1.65;0.85;;;20.10;68.10;;;;;;4997442;28;20352;-78
2024/03/02 05:58:49;;;;;;;1.42;0.75;;;20.40;68.20;;;;;;4996615;28;20693;-78
2024/03/02 06:01:16;;;;;;;1.17;0.90;;;20.30;68.20;;;;;;5004333;28;20195;-78
2024/03/02 06:03:43;;;;;;;1.00;0.80;;;20.40;68.40;;;;;;4999420;28;20200;-78
2024/03/02 06:06:11;;;;;;;1.00;0.73;;;20.20;68.10;;;;;;5005627;28;20198;-78
2024/03/02 06:08:39;;;;;;;1.33;0.90;;;20.40;68.40;;;;;;5009004;28;21069;-77
2024/03/02 06:11:05;;;;;;;1.67;0.85;;;20.40;68.40;;;;;;5010128;28;20202;-78
2024/03/02 06:13:32;;;;;;;1.35;0.80;;;20.50;68.60;;;;;;5008255;28;20203;-78
2024/03/02 06:15:59;;;;;;;1.05;0.80;;;20.40;68.40;;;;;;5004475;28;20676;-78
2024/03/02 06:18:25;;;;;;;1.00;0.75;;;20.40;68.50;;;;;;5008919;28;20291;-78
2024/03/02 06:20:52;;;;;;;1.30;1.05;;;20.40;68.30;;;;;;5001418;28;20202;-73
2024/03/02 06:23:20;;;;;;;1.00;0.88;;;20.70;68.90;;;;;;5001540;28;20767;-73
2024/03/02 06:25:47;;;;;;;8.82;0.90;;;20.20;68.20;;;;;;4997840;28;20196;-77
2024/03/02 06:28:15;;;;;;;1.05;0.88;;;20.30;68.50;;;;;;4996474;28;20223;-74
2024/03/02 06:30:41;;;;;;;1.00;0.70;;;20.40;68.70;;;;;;4997886;28;20232;-71
2024/03/02 06:33:08;;;;;;;0.95;0.70;;;20.40;68.80;;;;;;4998893;28;20275;-73
2024/03/02 06:35:36;;;;;;;3.97;0.88;;;20.90;69.50;;;;;;4997343;28;20208;-72
2024/03/02 06:38:02;;;;;;;1.10;0.90;;;20.50;69.30;;;;;;4988924;28;20291;-76
2024/03/02 06:40:30;;;;;;;1.10;0.70;;;20.60;69.60;;;;;;4995315;28;20204;-75
2024/03/02 06:42:57;;;;;;;1.42;0.80;;;20.30;69.20;;;;;;4999822;28;20201;-73
2024/03/02 06:45:24;;;;;;;1.58;0.80;;;20.60;69.70;;;;;;5000364;28;20197;-75
2024/03/02 06:47:51;;;;;;;1.00;0.70;;;20.50;69.60;;;;;;5001699;28;20212;-75
2024/03/02 06:50:17;;;;;;;1.50;0.88;;;20.50;69.80;;;;;;4999372;28;20197;-72
2024/03/02 06:52:44;;;;;;;1.10;0.98;;;20.40;69.70;;;;;;5001772;28;20196;-73
2024/03/02 06:55:11;;;;;;;1.30;0.90;;;20.60;70.00;;;;;;5004087;28;20192;-74
2024/03/02 06:57:39;;;;;;;1.13;0.70;;;20.70;70.10;;;;;;5001251;28;20212;-71
2024/03/02 07:00:08;;;;;;;2.95;2.25;;;20.70;71.00;;;;;;4999628;28;20197;-75
2024/03/02 07:02:35;;;;;;;1.23;0.80;;;20.60;70.10;;;;;;5001623;28;20204;-72
2024/03/02 07:05:02;;;;;;;1.33;0.80;;;20.60;70.40;;;;;;4998880;28;20782;-74
2024/03/02 07:07:29;;;;;;;1.10;0.80;;;20.60;70.30;;;;;;5001369;28;20220;-75
2024/03/02 07:09:55;;;;;;;6.07;0.98;;;20.40;70.20;;;;;;4998917;28;20206;-82
2024/03/02 07:12:22;;;;;;;1.40;0.70;;;20.70;70.40;;;;;;5002905;28;20199;-75
2024/03/02 07:15:11;;;;;;;1.00;0.80;;;20.70;70.40;;;;;;5002249;28;20473;-74
2024/03/02 07:17:38;;;;;;;1.52;0.85;;;20.70;70.30;;;;;;5001347;28;20346;-76
2024/03/02 07:20:06;;;;;;;1.00;0.70;;;20.70;70.30;;;;;;4998960;28;20425;-74
2024/03/02 07:22:33;;;;;;;4.38;0.90;;;20.70;70.10;;;;;;5003189;28;20291;-77
2024/03/02 07:25:00;;;;;;;1.00;0.75;;;21.00;70.80;;;;;;5001514;28;20199;-77
2024/03/02 07:27:26;;;;;;;1.00;0.70;;;20.80;70.70;;;;;;4999223;28;20779;-76
2024/03/02 07:29:55;;;;;;;1.02;0.77;;;20.60;70.40;;;;;;5003897;28;20210;-76
2024/03/02 07:32:22;;;;;;;1.17;0.82;;;20.80;70.50;;;;;;5000116;28;20200;-75
2024/03/02 07:34:50;;;;;;;0.90;0.60;;;21.10;70.90;;;;;;5003333;28;20204;-75
2024/03/02 07:37:17;;;;;;;1.00;0.80;;;20.80;70.50;;;;;;5001394;28;20207;-75
2024/03/02 07:39:45;;;;;;;1.17;0.80;;;20.80;70.30;;;;;;4998138;28;20542;-75
2024/03/02 07:42:12;;;;;;;1.08;0.68;;;20.60;70.00;;;;;;5001916;28;20219;-75
2024/03/02 07:44:38;;;;;;;1.20;0.70;;;20.70;70.00;;;;;;4999990;28;20589;-75
2024/03/02 07:47:07;;;;;;;1.00;0.70;;;20.90;70.10;;;;;;5002529;28;20209;-76
2024/03/02 07:49:34;;;;;;;1.15;0.82;;;21.20;70.30;;;;;;4992764;28;20201;-77
2024/03/02 07:52:01;;;;;;;2.08;0.70;;;20.80;69.70;;;;;;5000138;28;20637;-76
2024/03/02 07:54:28;;;;;;;1.00;0.73;;;21.10;70.00;;;;;;4994212;28;20616;-76
2024/03/02 07:56:54;;;;;;;1.10;0.80;;;21.10;69.90;;;;;;5001168;28;20706;-77
2024/03/02 07:59:21;;;;;;;1.00;0.70;;;21.10;69.70;;;;;;5001496;28;20204;-70
2024/03/02 08:01:50;;;;;;;1.27;0.80;;;21.00;69.50;;;;;;4994813;28;20933;-73
2024/03/02 08:04:18;;;;;;;1.10;0.90;;;21.30;69.80;;;;;;4996969;28;20203;-73
2024/03/02 08:06:47;;;;;;;1.30;0.80;;;20.90;69.60;;;;;;4998399;28;20459;-73
2024/03/02 08:09:13;;;;;;;1.20;0.75;;;21.20;69.60;;;;;;5000427;28;20482;-73
2024/03/02 08:11:40;;;;;;;1.08;0.77;;;21.20;69.60;;;;;;5003662;28;20201;-73
2024/03/02 08:14:07;;;;;;;1.10;0.93;;;21.30;69.60;;;;;;5005871;28;20572;-72
2024/03/02 08:16:34;;;;;;;1.75;0.80;;;20.90;69.00;;;;;;5002190;28;20200;-73
2024/03/02 08:19:00;;;;;;;1.00;0.70;;;21.20;69.30;;;;;;5000301;28;20203;-73
2024/03/02 08:21:30;;;;;;;1.85;1.15;;;21.30;69.50;;;;;;5004637;28;20651;-74
2024/03/02 08:23:57;;;;;;;1.00;0.80;;;21.30;69.30;;;;;;5003981;28;20205;-72
2024/03/02 08:26:24;;;;;;;1.15;0.80;;;21.40;69.30;;;;;;5002500;28;20992;-73
2024/03/02 08:28:50;;;;;;;1.40;0.80;;;21.30;69.10;;;;;;5004634;28;20231;-74
2024/03/02 08:31:17;;;;;;;0.90;0.70;;;21.00;68.70;;;;;;4997518;28;20955;-73
2024/03/02 08:33:44;;;;;;;1.00;0.60;;;21.30;69.10;;;;;;5001382;28;20489;-74
2024/03/02 08:36:11;;;;;;;1.10;0.73;;;21.10;68.90;;;;;;5004914;28;20947;-73
2024/03/02 08:38:39;;;;;;;1.10;0.70;;;21.80;69.50;;;;;;5003840;28;20208;-73
2024/03/02 08:41:06;;;;;;;5.85;0.85;;;21.20;68.70;;;;;;5003039;28;20196;-74
2024/03/02 08:43:32;;;;;;;0.90;0.70;;;21.20;68.70;;;;;;4997866;28;20211;-73
2024/03/02 08:45:59;;;;;;;1.20;0.80;;;21.30;68.90;;;;;;4996603;28;21064;-73
2024/03/02 08:48:26;;;;;;;0.90;0.70;;;21.30;68.90;;;;;;5003141;28;20227;-74
2024/03/02 08:50:52;;;;;;;1.10;0.70;;;21.30;68.70;;;;;;4995819;28;20214;-73
2024/03/02 08:53:19;;;;;;;1.10;0.90;;;21.20;68.70;;;;;;4998668;28;20197;-73
2024/03/02 08:55:47;;;;;;;1.23;0.90;;;21.30;68.70;;;;;;5005068;28;20200;-73
2024/03/02 08:58:14;;;;;;;1.03;0.70;;;21.20;68.50;;;;;;5003946;28;20506;-73
2024/03/02 09:00:42;;;;;;;2.05;0.75;;;21.30;68.60;;;;;;5001289;28;20463;-73
2024/03/02 09:03:08;;;;;;;1.10;0.80;;;21.40;68.60;;;;;;4999796;28;20211;-73
2024/03/02 09:05:35;;;;;;;1.20;0.80;;;21.30;68.60;;;;;;5001161;28;20205;-73
2024/03/02 09:08:03;;;;;;;1.13;0.77;;;21.30;68.50;;;;;;5003350;28;20209;-73
2024/03/02 09:10:30;;;;;;;1.00;0.70;;;21.60;68.90;;;;;;4999651;28;20242;-73
2024/03/02 09:12:58;;;;;;;0.90;0.70;;;21.30;68.60;;;;;;5003040;28;20201;-74
2024/03/02 09:15:25;;;;;;;1.93;1.03;;;21.20;68.40;;;;;;5001581;28;20200;-73
2024/03/02 09:17:52;;;;;;;1.20;0.70;;;21.30;68.50;;;;;;5004494;28;20472;-72
2024/03/02 09:20:18;;;;;;;1.85;0.80;;;21.80;69.00;;;;;;4998323;28;20207;-73
2024/03/02 09:22:47;;;;;;;1.10;0.77;;;21.50;68.90;;;;;;4996385;28;21139;-73
2024/03/02 09:25:14;;;;;;;0.90;0.70;;;21.40;68.50;;;;;;4999177;28;20489;-73
2024/03/02 09:27:40;;;;;;;1.55;0.95;;;21.10;68.20;;;;;;4998419;28;20224;-73
2024/03/02 09:30:11;;;;;;;1.20;0.90;;;21.30;68.50;;;;;;4997238;28;20560;-73
2024/03/02 09:32:38;;;;;;;1.10;0.80;;;21.30;68.50;;;;;;4999221;28;20457;-73
2024/03/02 09:35:05;;;;;;;0.97;0.77;;;21.60;69.00;;;;;;4991806;28;20467;-73
2024/03/02 09:37:32;;;;;;;1.07;0.63;;;21.40;68.50;;;;;;5000628;28;20862;-73
2024/03/02 09:39:59;;;;;;;1.00;0.70;;;21.30;69.20;;;;;;4998138;28;20475;-73
2024/03/02 09:42:26;;;;;;;1.00;0.70;;;21.30;68.90;;;;;;4996483;28;20737;-73
2024/03/02 09:44:53;;;;;;;1.10;0.80;;;20.90;68.00;;;;;;4997078;28;20192;-73
2024/03/02 09:47:21;;;;;;;1.00;0.70;;;21.40;68.60;;;;;;5001123;28;20199;-73
2024/03/02 09:49:48;;;;;;;1.17;0.88;;;21.60;68.80;;;;;;4991326;28;20557;-73
2024/03/02 09:52:15;;;;;;;1.58;0.80;;;21.40;68.50;;;;;;4998260;28;20199;-73
2024/03/02 09:54:42;;;;;;;1.13;0.68;;;21.80;68.90;;;;;;4998762;28;20215;-73
2024/03/02 09:57:10;;;;;;;1.20;0.80;;;21.30;68.40;;;;;;4999520;28;20191;-72
2024/03/02 09:59:37;;;;;;;1.80;0.95;;;21.30;68.40;;;;;;4999404;28;20656;-73
2024/03/02 10:02:06;;;;;;;1.90;0.85;;;21.30;68.40;;;;;;4996513;28;20199;-73
2024/03/02 10:04:35;;;;;;;2.03;0.80;;;21.30;68.30;;;;;;4995798;28;20251;-70
2024/03/02 10:07:13;;;;;;;1.10;0.80;;;21.10;68.10;;;;;;5004258;28;20458;-78
2024/03/02 10:09:39;;;;;;;1.33;0.90;;;21.40;68.70;;;;;;5005189;28;20478;-74
2024/03/02 10:12:08;;;;;;;5.07;1.00;;;21.20;67.50;;;;;;5002508;28;20204;-78
2024/03/02 10:14:35;;;;;;;1.20;0.85;;;21.30;68.00;;;;;;5005171;28;20571;-75
2024/03/02 10:17:06;;;;;;;4.90;1.00;;;21.30;68.40;;;;;;5002593;28;20197;-74
2024/03/02 10:19:34;;;;;;;0.97;0.70;;;21.40;68.60;;;;;;5004507;28;20687;-80
2024/03/02 10:22:02;;;;;;;1.30;1.13;;;21.40;68.70;;;;;;5001384;28;20454;-71
2024/03/02 10:24:37;;;;;;;1.10;0.70;;;21.20;68.60;;;;;;5005424;28;20546;-74
2024/03/02 10:27:08;;;;;;;3.57;0.87;;;21.50;69.00;;;;;;5007233;28;20457;-68
2024/03/02 10:29:37;;;;;;;1.10;0.90;;;21.40;68.90;;;;;;5009273;28;20483;-68
2024/03/02 10:32:06;;;;;;;0.90;0.77;;;21.40;69.00;;;;;;5007243;28;20469;-68
2024/03/02 10:34:34;;;;;;;1.43;0.70;;;21.40;69.00;;;;;;5007556;28;20467;-68
2024/03/02 10:37:01;;;;;;;1.00;0.80;;;21.50;69.20;;;;;;5005711;28;20476;-68
2024/03/02 10:39:29;;;;;;;4.40;0.80;;;21.50;69.30;;;;;;4999506;28;21035;-68
2024/03/02 10:41:57;;;;;;;0.90;0.70;;;21.60;69.40;;;;;;5005898;28;20856;-67
2024/03/02 10:44:24;;;;;;;1.00;0.70;;;21.30;69.10;;;;;;5003675;28;20488;-66
2024/03/02 10:46:51;;;;;;;1.00;0.70;;;21.50;69.30;;;;;;5002121;28;21058;-67
2024/03/02 10:49:18;;;;;;;2.60;0.80;;;21.60;69.50;;;;;;5002911;28;20505;-67
2024/03/02 10:51:46;;;;;;;1.03;0.80;;;21.60;69.50;;;;;;5005344;28;20467;-66
2024/03/02 10:54:13;;;;;;;0.90;0.60;;;21.70;69.60;;;;;;4995397;28;20706;-79
2024/03/02 10:56:41;;;;;;;1.00;0.70;;;21.60;69.50;;;;;;5005554;28;20473;-75
2024/03/02 10:59:18;;;;;;;1.20;0.90;;;21.40;69.20;;;;;;5006492;28;20471;-72
2024/03/02 11:01:48;;;;;;;1.00;0.63;;;22.00;69.80;;;;;;5006905;28;20548;-76
2024/03/02 11:04:18;;;;;;;1.37;0.70;;;21.60;69.50;;;;;;5005563;28;20459;-73
2024/03/02 11:06:50;;;;;;;1.00;0.70;;;21.30;69.00;;;;;;5002073;28;20450;-72
2024/03/02 11:09:20;;;;;;;1.73;1.63;;;21.60;69.50;;;;;;5006340;28;21094;-74
2024/03/02 11:11:55;;;;;;;2.43;2.23;;;21.70;69.50;;;;;;5008656;28;20879;-77
2024/03/02 11:14:25;;;;;;;1.70;1.60;;;21.70;69.50;;;;;;5008468;28;20482;-76
2024/03/02 11:16:54;;;;;;;1.57;1.47;;;21.70;69.50;;;;;;5003999;28;20467;-74
2024/03/02 11:19:20;;;;;;;1.37;1.27;;;21.70;69.60;;;;;;5006427;28;20475;-74
2024/03/02 11:21:49;;;;;;;2.20;2.00;;;21.70;69.50;;;;;;5006510;28;20469;-75
2024/03/02 11:24:33;;;;;;;2.40;2.20;;;21.70;69.60;;;;;;5008890;28;21042;-73
2024/03/02 11:27:00;;;;;;;3.40;3.20;;;21.70;69.50;;;;;;5007463;28;20455;-72
2024/03/02 11:29:46;;;;;;;1.40;1.30;;;22.20;70.20;;;;;;5009328;28;21069;-71
2024/03/02 11:32:23;;;;;;;2.50;2.30;;;21.90;69.60;;;;;;5003674;28;20823;-73
2024/03/02 11:34:51;;;;;;;1.73;1.63;;;22.30;70.10;;;;;;5005318;28;20452;-72
2024/03/02 11:37:21;;;;;;;1.30;1.03;;;21.90;69.60;;;;;;5008966;28;20461;-72
2024/03/02 11:39:50;;;;;;;1.10;0.87;;;21.90;69.60;;;;;;5006736;28;20562;-77
2024/03/02 11:42:17;;;;;;;1.50;1.20;;;21.70;69.30;;;;;;5010128;28;20823;-69
2024/03/02 11:44:46;;;;;;;1.60;1.50;;;21.90;69.50;;;;;;5009545;28;20542;-67
2024/03/02 11:47:15;;;;;;;1.10;0.80;;;22.10;69.90;;;;;;5001765;28;20478;-67
2024/03/02 11:49:43;;;;;;;1.23;0.70;;;22.40;70.10;;;;;;5003849;28;20483;-67
2024/03/02 11:52:11;;;;;;;1.53;1.43;;;22.00;69.60;;;;;;5003215;28;21037;-67
2024/03/02 11:54:40;;;;;;;1.00;0.80;;;21.90;69.50;;;;;;5002206;28;20470;-68
2024/03/02 11:57:07;;;;;;;2.40;0.97;;;22.00;69.00;;;;;;5000398;28;20612;-69
2024/03/02 11:59:34;;;;;;;0.90;0.70;;;21.80;69.30;;;;;;5002930;28;20544;-70
2024/03/02 12:02:02;;;;;;;1.37;1.00;;;22.00;69.20;;;;;;5005400;28;20463;-69
2024/03/02 12:04:30;;;;;;;1.07;0.80;;;21.80;68.90;;;;;;5006546;28;20462;-66
2024/03/02 12:07:00;;;;;;;1.63;1.53;;;22.00;69.20;;;;;;5000621;28;20471;-65
2024/03/02 12:09:27;;;;;;;1.03;0.80;;;21.80;68.80;;;;;;5005415;28;20598;-66
2024/03/02 12:12:09;;;;;;;1.30;1.00;;;22.00;69.10;;;;;;5003741;28;20459;-67
2024/03/02 12:14:37;;;;;;;1.10;0.87;;;22.00;69.00;;;;;;5006851;28;21066;-72
2024/03/02 12:17:05;;;;;;;1.30;1.20;;;22.30;69.50;;;;;;5002286;28;20994;-75
2024/03/02 12:19:32;;;;;;;3.17;1.27;;;22.00;69.00;;;;;;4999755;28;20547;-74
2024/03/02 12:22:00;;;;;;;1.50;1.40;;;22.00;69.00;;;;;;5003129;28;20490;-72
2024/03/02 12:24:29;;;;;;;1.47;1.00;;;22.60;69.60;;;;;;5006648;28;20469;-72
2024/03/02 12:26:56;;;;;;;1.10;0.97;;;22.00;69.00;;;;;;5000416;28;20465;-69
2024/03/02 12:29:24;;;;;;;1.20;0.93;;;22.10;69.10;;;;;;5005934;28;21005;-68
2024/03/02 12:31:53;;;;;;;1.00;0.73;;;22.10;69.10;;;;;;5001926;28;20551;-68
2024/03/02 12:34:20;;;;;;;1.30;1.20;;;22.10;69.00;;;;;;5001905;28;20549;-68
2024/03/02 12:36:49;;;;;;;1.10;1.00;;;22.10;69.10;;;;;;5004575;28;21012;-70
2024/03/02 12:39:16;;;;;;;1.00;0.90;;;22.10;69.00;;;;;;4996567;28;21061;-72
2024/03/02 12:41:43;;;;;;;0.97;0.80;;;22.50;69.50;;;;;;5005779;28;20459;-69
2024/03/02 12:44:10;;;;;;;1.13;0.90;;;22.00;68.80;;;;;;4999609;28;20470;-68
2024/03/02 12:46:38;;;;;;;1.00;0.80;;;22.10;69.00;;;;;;5005564;28;20826;-68
2024/03/02 12:49:11;;;;;;;1.20;1.10;;;22.20;69.00;;;;;;5002368;28;20585;-73
2024/03/02 12:51:40;;;;;;;1.13;1.03;;;22.20;69.00;;;;;;5007130;28;20583;-69